Minerva Anna — SVNP — position and weather

sailwx.info

Track history (hours):
 
Tides and Currents Weather Stations Pressure Air Temp Water Temp Dewpoint Dewpoint Depression Visibility Wind Speed Wind Dir Waves Ship Positions

Minerva Anna

Last reported at 2014-Sep-17 10:29 UTC. Time now 2014-Sep-18 19:40 UTC.
Position N 58°19' E 011°22'.

Length 183 m; draft 7.5 m.

Type: Ship. MMSI: 240729000.

Date/timePositionNaut miles runAvg speedWind from/ knotsBaromVisibWave heightAir tempDewpointWater temp
2014-Sep-17 10:29N 58°19' E 011°22'9 9.7
2014-Sep-17 09:33N 58°13' E 011°11'2 1.2
2014-Sep-17 08:12N 58°11' E 011°12'0 0.0
2014-Sep-17 07:32N 58°11' E 011°12'0 0.0
2014-Sep-17 06:15N 58°11' E 011°12'0 0.0
2014-Sep-17 05:33N 58°11' E 011°12'0 0.0
2014-Sep-17 04:08N 58°11' E 011°12'0 0.0
2014-Sep-17 03:32N 58°11' E 011°12'0 0.0
2014-Sep-17 02:32N 58°11' E 011°12'0 0.0
2014-Sep-17 01:33N 58°11' E 011°12'0 0.0
2014-Sep-17 00:29N 58°11' E 011°12'0 0.0
2014-Sep-16 23:32N 58°11' E 011°12'0 0.0
2014-Sep-16 22:32N 58°11' E 011°12'0 0.0
2014-Sep-16 21:33N 58°11' E 011°12'0 0.0
2014-Sep-16 20:31N 58°11' E 011°12'0 0.0
2014-Sep-16 19:32N 58°11' E 011°12'0 0.0
2014-Sep-16 18:28N 58°11' E 011°12'0 0.0
2014-Sep-16 17:28N 58°11' E 011°12'0 0.0
2014-Sep-16 16:23N 58°11' E 011°12'0 0.0
2014-Sep-16 15:08N 58°11' E 011°12'0 0.0
2014-Sep-16 14:29N 58°11' E 011°12'0 0.0
2014-Sep-16 13:23N 58°11' E 011°12'0 0.1
2014-Sep-16 12:20N 58°11' E 011°12'0 0.0
2014-Sep-16 11:31N 58°11' E 011°12'0 0.0
2014-Sep-16 10:30N 58°11' E 011°12'0 0.0
2014-Sep-16 09:29N 58°11' E 011°12'0 0.0
2014-Sep-16 08:32N 58°11' E 011°12'0 0.0
2014-Sep-16 07:28N 58°11' E 011°12'0 0.0
2014-Sep-16 06:30N 58°11' E 011°12'0 0.0
2014-Sep-16 05:33N 58°11' E 011°12'0 0.0
2014-Sep-16 04:32N 58°11' E 011°12'0 0.0
2014-Sep-16 03:33N 58°11' E 011°12'0 0.0
2014-Sep-16 02:33N 58°11' E 011°12'0 0.0
2014-Sep-16 01:33N 58°11' E 011°12'0 0.0
2014-Sep-16 00:32N 58°11' E 011°12'0 0.0
2014-Sep-15 23:26N 58°11' E 011°12'0 0.0
2014-Sep-15 22:32N 58°11' E 011°12'0 0.0
2014-Sep-15 21:31N 58°11' E 011°12'0 0.0
2014-Sep-15 20:33N 58°11' E 011°12'0 0.0
2014-Sep-15 19:30N 58°11' E 011°12'0 0.0
2014-Sep-15 18:33N 58°11' E 011°12'0 0.1
2014-Sep-15 17:28N 58°11' E 011°12'0 0.0
2014-Sep-15 16:20N 58°11' E 011°12'0 0.0
2014-Sep-15 15:15N 58°11' E 011°12'0 0.0
2014-Sep-15 13:26N 58°11' E 011°12'0 0.0
2014-Sep-15 12:20N 58°11' E 011°12'0 0.0
2014-Sep-15 11:11N 58°11' E 011°12'0 0.0
2014-Sep-15 10:26N 58°11' E 011°12'0 0.0
2014-Sep-15 09:33N 58°11' E 011°12'0 0.0
2014-Sep-15 08:33N 58°11' E 011°12'0 0.0
2014-Sep-15 07:29N 58°11' E 011°12'0 0.0
2014-Sep-15 06:30N 58°11' E 011°12'0 0.0
2014-Sep-15 05:32N 58°11' E 011°12'0 0.0
2014-Sep-15 04:33N 58°11' E 011°12'0 0.0
2014-Sep-15 03:33N 58°11' E 011°12'0 0.0
2014-Sep-15 02:31N 58°11' E 011°12'0 0.0
2014-Sep-15 01:33N 58°11' E 011°12'0 0.0
2014-Sep-15 00:33N 58°11' E 011°12'0 0.0
2014-Sep-14 23:26N 58°11' E 011°12'0 0.0
2014-Sep-14 22:33N 58°11' E 011°12'0 0.0
2014-Sep-14 21:15N 58°11' E 011°12'0 0.0
2014-Sep-14 19:32N 58°11' E 011°12'5 4.8
2014-Sep-14 18:28N 58°07' E 011°05'9 9.7
2014-Sep-14 17:33N 57°59' E 011°01'10 9.9
2014-Sep-14 16:33N 57°49' E 010°56'1111.0
2014-Sep-14 15:33N 57°41' E 010°43'2 1.7
2014-Sep-14 14:32N 57°41' E 010°40'0 0.0
2014-Sep-14 13:31N 57°41' E 010°40'0 0.0
2014-Sep-14 12:31N 57°41' E 010°40'0 0.0
2014-Sep-14 11:25N 57°41' E 010°40'0 0.0
2014-Sep-14 10:29N 57°41' E 010°40'0 0.0
2014-Sep-14 09:29N 57°41' E 010°40'0 0.1
2014-Sep-14 08:33N 57°41' E 010°40'6 6.1
2014-Sep-14 07:33N 57°47' E 010°43'1110.0
2014-Sep-14 06:30N 57°45' E 010°23'8 8.0
2014-Sep-14 05:33N 57°44' E 010°09'9 8.5
2014-Sep-14 04:27N 57°42' E 009°52'19 9.0
2014-Sep-14 02:23N 57°38' E 009°18'8 9.4
2014-Sep-14 01:32N 57°34' E 009°05'235 9.0
2014-Sep-12 23:30N 54°22' E 005°04'10 9.4
2014-Sep-12 22:26N 54°13' E 004°55'12 9.5
2014-Sep-12 21:13N 54°03' E 004°45'7 9.6
2014-Sep-12 20:31N 53°58' E 004°38'38 9.0
2014-Sep-12 16:18N 53°32' E 003°51'42 8.2
2014-Sep-12 11:11N 52°54' E 003°20'5 7.3
2014-Sep-12 10:30N 52°50' E 003°16'34 8.4
2014-Sep-12 06:25N 52°20' E 002°49'1110.5
2014-Sep-12 05:22N 52°11' E 002°40'2310.9
2014-Sep-12 03:14N 51°47' E 002°38'710.8
2014-Sep-12 02:33N 51°42' E 002°30'1010.4
2014-Sep-12 01:33N 51°34' E 002°19'10 9.6
2014-Sep-12 00:34N 51°27' E 002°09'8 8.4
2014-Sep-11 23:33N 51°21' E 002°00'7 6.9
2014-Sep-11 22:33N 51°15' E 001°53'6 5.6
2014-Sep-11 21:34N 51°11' E 001°47'5 5.1
2014-Sep-11 20:33N 51°07' E 001°42'5 5.2
2014-Sep-11 19:34N 51°03' E 001°37'6 6.1
2014-Sep-11 18:33N 50°58' E 001°31'7 7.2
2014-Sep-11 17:33N 50°52' E 001°26'19 7.9
2014-Sep-11 15:06N 50°36' E 001°09'5 8.6
2014-Sep-11 14:33N 50°33' E 001°03'11 8.4
2014-Sep-11 13:12N 50°28' E 000°47'11 9.3
2014-Sep-11 12:04N 50°25' E 000°31'510.2
2014-Sep-11 11:33N 50°24' E 000°23'2711.4
2014-Sep-11 09:12N 50°17' W 000°18'2910.7
2014-Sep-11 06:28N 50°09' W 001°02'28 5.2
2014-Sep-11 01:05N 50°02' W 001°44'32 8.9
2014-Sep-10 21:32N 49°54' W 002°32'106 8.5
2014-Sep-10 09:04N 49°04' W 004°56'35 9.3
2014-Sep-10 05:15N 48°43' W 005°40'2111.2
2014-Sep-10 03:24N 48°25' W 005°55'911.0
2014-Sep-10 02:33N 48°17' W 006°02'1110.9
2014-Sep-10 01:33N 48°08' W 006°09'10 9.9
2014-Sep-10 00:33N 47°59' W 006°17'9 9.1
2014-Sep-09 23:31N 47°51' W 006°23'8 8.5
2014-Sep-09 22:33N 47°43' W 006°29'7 7.1
2014-Sep-09 21:33N 47°37' W 006°34'8 7.5
2014-Sep-09 20:32N 47°30' W 006°39'  
Track history (hours):
 
Tides and Currents Weather Stations Pressure Air Temp Water Temp Dewpoint Dewpoint Depression Visibility Wind Speed Wind Dir Waves Ship Positions

Minerva Anna

Last reported at 2014-Sep-17 10:29 UTC. Time now 2014-Sep-18 19:40 UTC.
Position N 58°19' E 011°22'.

Length 183 m; draft 7.5 m.

Type: Ship. MMSI: 240729000.

Date/timePositionNaut miles runAvg speedWind from/ knotsBaromVisibWave heightAir tempDewpointWater temp
2014-Sep-17 10:29N 58°19' E 011°22'9 9.7
2014-Sep-17 09:33N 58°13' E 011°11'2 1.2
2014-Sep-17 08:12N 58°11' E 011°12'0 0.0
2014-Sep-17 07:32N 58°11' E 011°12'0 0.0
2014-Sep-17 06:15N 58°11' E 011°12'0 0.0
2014-Sep-17 05:33N 58°11' E 011°12'0 0.0
2014-Sep-17 04:08N 58°11' E 011°12'0 0.0
2014-Sep-17 03:32N 58°11' E 011°12'0 0.0
2014-Sep-17 02:32N 58°11' E 011°12'0 0.0
2014-Sep-17 01:33N 58°11' E 011°12'0 0.0
2014-Sep-17 00:29N 58°11' E 011°12'0 0.0
2014-Sep-16 23:32N 58°11' E 011°12'0 0.0
2014-Sep-16 22:32N 58°11' E 011°12'0 0.0
2014-Sep-16 21:33N 58°11' E 011°12'0 0.0
2014-Sep-16 20:31N 58°11' E 011°12'0 0.0
2014-Sep-16 19:32N 58°11' E 011°12'0 0.0
2014-Sep-16 18:28N 58°11' E 011°12'0 0.0
2014-Sep-16 17:28N 58°11' E 011°12'0 0.0
2014-Sep-16 16:23N 58°11' E 011°12'0 0.0
2014-Sep-16 15:08N 58°11' E 011°12'0 0.0
2014-Sep-16 14:29N 58°11' E 011°12'0 0.0
2014-Sep-16 13:23N 58°11' E 011°12'0 0.1
2014-Sep-16 12:20N 58°11' E 011°12'0 0.0
2014-Sep-16 11:31N 58°11' E 011°12'0 0.0
2014-Sep-16 10:30N 58°11' E 011°12'0 0.0
2014-Sep-16 09:29N 58°11' E 011°12'0 0.0
2014-Sep-16 08:32N 58°11' E 011°12'0 0.0
2014-Sep-16 07:28N 58°11' E 011°12'0 0.0
2014-Sep-16 06:30N 58°11' E 011°12'0 0.0
2014-Sep-16 05:33N 58°11' E 011°12'0 0.0
2014-Sep-16 04:32N 58°11' E 011°12'0 0.0
2014-Sep-16 03:33N 58°11' E 011°12'0 0.0
2014-Sep-16 02:33N 58°11' E 011°12'0 0.0
2014-Sep-16 01:33N 58°11' E 011°12'0 0.0
2014-Sep-16 00:32N 58°11' E 011°12'0 0.0
2014-Sep-15 23:26N 58°11' E 011°12'0 0.0
2014-Sep-15 22:32N 58°11' E 011°12'0 0.0
2014-Sep-15 21:31N 58°11' E 011°12'0 0.0
2014-Sep-15 20:33N 58°11' E 011°12'0 0.0
2014-Sep-15 19:30N 58°11' E 011°12'0 0.0
2014-Sep-15 18:33N 58°11' E 011°12'0 0.1
2014-Sep-15 17:28N 58°11' E 011°12'0 0.0
2014-Sep-15 16:20N 58°11' E 011°12'0 0.0
2014-Sep-15 15:15N 58°11' E 011°12'0 0.0
2014-Sep-15 13:26N 58°11' E 011°12'0 0.0
2014-Sep-15 12:20N 58°11' E 011°12'0 0.0
2014-Sep-15 11:11N 58°11' E 011°12'0 0.0
2014-Sep-15 10:26N 58°11' E 011°12'0 0.0
2014-Sep-15 09:33N 58°11' E 011°12'0 0.0
2014-Sep-15 08:33N 58°11' E 011°12'0 0.0
2014-Sep-15 07:29N 58°11' E 011°12'0 0.0
2014-Sep-15 06:30N 58°11' E 011°12'0 0.0
2014-Sep-15 05:32N 58°11' E 011°12'0 0.0
2014-Sep-15 04:33N 58°11' E 011°12'0 0.0
2014-Sep-15 03:33N 58°11' E 011°12'0 0.0
2014-Sep-15 02:31N 58°11' E 011°12'0 0.0
2014-Sep-15 01:33N 58°11' E 011°12'0 0.0
2014-Sep-15 00:33N 58°11' E 011°12'0 0.0
2014-Sep-14 23:26N 58°11' E 011°12'0 0.0
2014-Sep-14 22:33N 58°11' E 011°12'0 0.0
2014-Sep-14 21:15N 58°11' E 011°12'0 0.0
2014-Sep-14 19:32N 58°11' E 011°12'5 4.8
2014-Sep-14 18:28N 58°07' E 011°05'9 9.7
2014-Sep-14 17:33N 57°59' E 011°01'10 9.9
2014-Sep-14 16:33N 57°49' E 010°56'1111.0
2014-Sep-14 15:33N 57°41' E 010°43'2 1.7
2014-Sep-14 14:32N 57°41' E 010°40'0 0.0
2014-Sep-14 13:31N 57°41' E 010°40'0 0.0
2014-Sep-14 12:31N 57°41' E 010°40'0 0.0
2014-Sep-14 11:25N 57°41' E 010°40'0 0.0
2014-Sep-14 10:29N 57°41' E 010°40'0 0.0
2014-Sep-14 09:29N 57°41' E 010°40'0 0.1
2014-Sep-14 08:33N 57°41' E 010°40'6 6.1
2014-Sep-14 07:33N 57°47' E 010°43'1110.0
2014-Sep-14 06:30N 57°45' E 010°23'8 8.0
2014-Sep-14 05:33N 57°44' E 010°09'9 8.5
2014-Sep-14 04:27N 57°42' E 009°52'19 9.0
2014-Sep-14 02:23N 57°38' E 009°18'8 9.4
2014-Sep-14 01:32N 57°34' E 009°05'235 9.0
2014-Sep-12 23:30N 54°22' E 005°04'10 9.4
2014-Sep-12 22:26N 54°13' E 004°55'12 9.5
2014-Sep-12 21:13N 54°03' E 004°45'7 9.6
2014-Sep-12 20:31N 53°58' E 004°38'38 9.0
2014-Sep-12 16:18N 53°32' E 003°51'42 8.2
2014-Sep-12 11:11N 52°54' E 003°20'5 7.3
2014-Sep-12 10:30N 52°50' E 003°16'34 8.4
2014-Sep-12 06:25N 52°20' E 002°49'1110.5
2014-Sep-12 05:22N 52°11' E 002°40'2310.9
2014-Sep-12 03:14N 51°47' E 002°38'710.8
2014-Sep-12 02:33N 51°42' E 002°30'1010.4
2014-Sep-12 01:33N 51°34' E 002°19'10 9.6
2014-Sep-12 00:34N 51°27' E 002°09'8 8.4
2014-Sep-11 23:33N 51°21' E 002°00'7 6.9
2014-Sep-11 22:33N 51°15' E 001°53'6 5.6
2014-Sep-11 21:34N 51°11' E 001°47'5 5.1
2014-Sep-11 20:33N 51°07' E 001°42'5 5.2
2014-Sep-11 19:34N 51°03' E 001°37'6 6.1
2014-Sep-11 18:33N 50°58' E 001°31'7 7.2
2014-Sep-11 17:33N 50°52' E 001°26'19 7.9
2014-Sep-11 15:06N 50°36' E 001°09'5 8.6
2014-Sep-11 14:33N 50°33' E 001°03'11 8.4
2014-Sep-11 13:12N 50°28' E 000°47'11 9.3
2014-Sep-11 12:04N 50°25' E 000°31'510.2
2014-Sep-11 11:33N 50°24' E 000°23'2711.4
2014-Sep-11 09:12N 50°17' W 000°18'2910.7
2014-Sep-11 06:28N 50°09' W 001°02'28 5.2
2014-Sep-11 01:05N 50°02' W 001°44'32 8.9
2014-Sep-10 21:32N 49°54' W 002°32'106 8.5
2014-Sep-10 09:04N 49°04' W 004°56'35 9.3
2014-Sep-10 05:15N 48°43' W 005°40'2111.2
2014-Sep-10 03:24N 48°25' W 005°55'911.0
2014-Sep-10 02:33N 48°17' W 006°02'1110.9
2014-Sep-10 01:33N 48°08' W 006°09'10 9.9
2014-Sep-10 00:33N 47°59' W 006°17'9 9.1
2014-Sep-09 23:31N 47°51' W 006°23'8 8.5
2014-Sep-09 22:33N 47°43' W 006°29'7 7.1
2014-Sep-09 21:33N 47°37' W 006°34'8 7.5
2014-Sep-09 20:32N 47°30' W 006°39'  

Dump ship's entire track history